createdAt,value
2023-04-16T00:01:28.129Z,8.81
2023-04-16T00:03:54.833Z,8.92
2023-04-16T00:06:22.282Z,8.83
2023-04-16T00:08:48.721Z,8.71
2023-04-16T00:11:15.433Z,8.71
2023-04-16T00:13:42.043Z,8.75
2023-04-16T00:16:08.506Z,8.83
2023-04-16T00:18:35.201Z,8.78
2023-04-16T00:21:02.938Z,8.73
2023-04-16T00:23:30.389Z,8.76
2023-04-16T00:25:57.983Z,8.77
2023-04-16T00:28:24.586Z,8.72
2023-04-16T00:30:51.064Z,8.69
2023-04-16T00:33:17.584Z,8.65
2023-04-16T00:35:44.006Z,8.61
2023-04-16T00:38:10.402Z,8.69
2023-04-16T00:40:36.832Z,8.56
2023-04-16T00:43:03.225Z,8.56
2023-04-16T00:45:29.690Z,8.73
2023-04-16T00:47:56.124Z,8.44
2023-04-16T00:50:22.568Z,8.41
2023-04-16T00:52:48.979Z,8.41
2023-04-16T00:55:15.592Z,8.41
2023-04-16T00:57:42.016Z,8.37
2023-04-16T01:00:08.461Z,8.38
2023-04-16T01:02:35.055Z,8.43
2023-04-16T01:05:01.600Z,8.42
2023-04-16T01:07:28.041Z,8.38
2023-04-16T01:09:54.493Z,8.32
2023-04-16T01:12:20.902Z,8.34
2023-04-16T01:14:47.441Z,8.39
2023-04-16T01:17:13.863Z,8.37
2023-04-16T01:19:40.291Z,8.41
2023-04-16T01:22:06.826Z,8.42
2023-04-16T01:24:33.262Z,8.54
2023-04-16T01:26:59.698Z,8.37
2023-04-16T01:29:26.117Z,8.26
2023-04-16T01:31:52.583Z,8.23
2023-04-16T01:34:19.568Z,8.23
2023-04-16T01:36:48.159Z,8.27
2023-04-16T01:39:14.998Z,8.28
2023-04-16T01:41:41.431Z,8.32
2023-04-16T01:44:07.851Z,8.38
2023-04-16T01:46:34.375Z,8.45
2023-04-16T01:49:00.878Z,8.53
2023-04-16T01:51:27.687Z,8.39
2023-04-16T01:53:55.298Z,8.37
2023-04-16T01:56:23.874Z,8.37
2023-04-16T01:58:50.313Z,8.41
2023-04-16T02:01:16.724Z,8.44
2023-04-16T02:03:43.243Z,8.47
2023-04-16T02:06:09.793Z,8.51
2023-04-16T02:08:36.189Z,8.56
2023-04-16T02:11:02.602Z,8.67
2023-04-16T02:13:29.044Z,8.68
2023-04-16T02:15:55.457Z,8.70
2023-04-16T02:18:21.879Z,8.64
2023-04-16T02:20:48.303Z,8.71
2023-04-16T02:23:14.699Z,8.70
2023-04-16T02:25:41.093Z,8.76
2023-04-16T02:28:07.510Z,8.77
2023-04-16T02:30:33.906Z,8.74
2023-04-16T02:33:00.344Z,8.65
2023-04-16T02:35:26.742Z,8.64
2023-04-16T02:37:53.174Z,8.64
2023-04-16T02:40:19.607Z,8.99
2023-04-16T02:42:46.016Z,8.81
2023-04-16T02:45:12.445Z,8.57
2023-04-16T02:47:38.900Z,8.55
2023-04-16T02:50:05.336Z,8.51
2023-04-16T02:52:31.747Z,8.51
2023-04-16T02:54:58.139Z,8.53
2023-04-16T02:57:24.564Z,8.51
2023-04-16T02:59:50.971Z,8.49
2023-04-16T03:02:17.423Z,8.56
2023-04-16T03:04:44.534Z,8.44
2023-04-16T03:07:11.997Z,8.37
2023-04-16T03:09:38.612Z,8.35
2023-04-16T03:12:05.063Z,8.32
2023-04-16T03:14:31.808Z,8.34
2023-04-16T03:16:58.205Z,8.25
2023-04-16T03:19:24.969Z,8.20
2023-04-16T03:21:51.386Z,8.20
2023-04-16T03:24:17.792Z,8.15
2023-04-16T03:26:44.195Z,8.09
2023-04-16T03:29:10.850Z,8.24
2023-04-16T03:31:37.596Z,8.18
2023-04-16T03:34:04.121Z,8.13
2023-04-16T03:36:30.549Z,8.17
2023-04-16T03:38:57.134Z,8.17
2023-04-16T03:41:23.539Z,8.24
2023-04-16T03:43:49.976Z,8.16
2023-04-16T03:46:17.476Z,8.16
2023-04-16T03:48:43.919Z,8.48
2023-04-16T03:51:10.296Z,8.50
2023-04-16T03:53:36.740Z,8.28
2023-04-16T03:56:03.115Z,8.15
2023-04-16T03:58:29.548Z,7.98
2023-04-16T04:00:55.942Z,7.82
2023-04-16T04:03:22.475Z,7.80
2023-04-16T04:05:49.051Z,7.91
2023-04-16T04:08:15.453Z,8.08
2023-04-16T04:10:41.884Z,8.23
2023-04-16T04:13:08.275Z,7.95
2023-04-16T04:15:34.720Z,7.84
2023-04-16T04:18:01.176Z,7.83
2023-04-16T04:20:27.594Z,7.76
2023-04-16T04:22:54.006Z,7.93
2023-04-16T04:25:20.433Z,7.78
2023-04-16T04:27:46.849Z,7.70
2023-04-16T04:30:13.276Z,7.70
2023-04-16T04:32:39.722Z,7.88
2023-04-16T04:35:06.193Z,7.81
2023-04-16T04:37:32.597Z,7.75
2023-04-16T04:39:59.049Z,7.67
2023-04-16T04:42:25.567Z,7.69
2023-04-16T04:44:52.038Z,7.81
2023-04-16T04:47:18.500Z,7.78
2023-04-16T04:49:44.986Z,7.82
2023-04-16T04:52:11.400Z,7.87
2023-04-16T04:54:37.846Z,7.86
2023-04-16T04:57:04.308Z,7.90
2023-04-16T04:59:30.722Z,7.95
2023-04-16T05:01:57.174Z,7.99
2023-04-16T05:04:23.628Z,8.00
2023-04-16T05:06:50.017Z,8.16
2023-04-16T05:09:16.452Z,8.10
2023-04-16T05:11:42.909Z,8.04
2023-04-16T05:14:09.335Z,8.03
2023-04-16T05:16:35.803Z,8.29
2023-04-16T05:19:02.321Z,8.24
2023-04-16T05:21:30.045Z,7.98
2023-04-16T05:23:56.514Z,7.94
2023-04-16T05:26:23.010Z,7.94
2023-04-16T05:28:49.428Z,8.05
2023-04-16T05:31:15.959Z,7.98
2023-04-16T05:33:42.372Z,8.03
2023-04-16T05:36:08.789Z,8.08
2023-04-16T05:38:35.209Z,7.90
2023-04-16T05:41:01.617Z,7.88
2023-04-16T05:43:28.049Z,7.91
2023-04-16T05:45:54.535Z,7.99
2023-04-16T05:48:21.126Z,7.99
2023-04-16T05:50:47.540Z,8.00
2023-04-16T05:53:13.955Z,8.00
2023-04-16T05:55:40.399Z,8.05
2023-04-16T05:58:06.817Z,8.01
2023-04-16T06:00:33.237Z,8.06
2023-04-16T06:02:59.949Z,8.10
2023-04-16T06:05:26.565Z,8.15
2023-04-16T06:07:53.014Z,8.20
2023-04-16T06:10:19.410Z,8.23
2023-04-16T06:12:45.809Z,8.24
2023-04-16T06:15:12.218Z,8.26
2023-04-16T06:17:38.648Z,8.30
2023-04-16T06:20:05.171Z,8.35
2023-04-16T06:22:31.584Z,8.41
2023-04-16T06:24:58.152Z,8.42
2023-04-16T06:27:24.545Z,8.44
2023-04-16T06:29:51.169Z,8.48
2023-04-16T06:32:18.777Z,8.67
2023-04-16T06:34:47.304Z,8.62
2023-04-16T06:37:13.904Z,8.59
2023-04-16T06:39:40.321Z,8.57
2023-04-16T06:42:07.181Z,8.43
2023-04-16T06:44:33.756Z,8.44
2023-04-16T06:47:01.395Z,8.50
2023-04-16T06:49:28.938Z,8.63
2023-04-16T06:51:56.536Z,8.69
2023-04-16T06:54:23.080Z,8.71
2023-04-16T06:56:49.531Z,8.77
2023-04-16T06:59:16.829Z,8.80
2023-04-16T07:01:45.017Z,8.84
2023-04-16T07:04:14.063Z,8.88
2023-04-16T07:06:42.118Z,8.91
2023-04-16T07:09:09.950Z,8.98
2023-04-16T07:11:37.334Z,9.03
2023-04-16T07:14:05.943Z,9.07
2023-04-16T07:16:33.555Z,9.15
2023-04-16T07:19:01.109Z,9.23
2023-04-16T07:21:28.712Z,9.29
2023-04-16T07:23:56.303Z,9.31
2023-04-16T07:26:22.901Z,9.33
2023-04-16T07:28:50.480Z,9.33
2023-04-16T07:31:18.111Z,9.33
2023-04-16T07:33:44.953Z,9.33
2023-04-16T07:36:13.233Z,9.40
2023-04-16T07:38:40.853Z,9.45
2023-04-16T07:41:08.456Z,9.50
2023-04-16T07:43:36.079Z,9.51
2023-04-16T07:46:04.705Z,9.48
2023-04-16T07:48:32.268Z,9.47
2023-04-16T07:51:00.873Z,9.49
2023-04-16T07:53:28.450Z,9.56
2023-04-16T07:55:56.040Z,9.60
2023-04-16T07:58:23.638Z,9.67
2023-04-16T08:00:51.236Z,9.74
2023-04-16T08:03:18.987Z,9.80
2023-04-16T08:05:46.411Z,9.87
2023-04-16T08:08:14.024Z,9.94
2023-04-16T08:10:41.604Z,10.03
2023-04-16T08:13:09.186Z,10.02
2023-04-16T08:15:36.883Z,10.07
2023-04-16T08:18:05.432Z,10.14
2023-04-16T08:20:33.977Z,10.21
2023-04-16T08:23:01.595Z,10.28
2023-04-16T08:25:30.158Z,10.35
2023-04-16T08:27:56.752Z,10.39
2023-04-16T08:30:24.349Z,10.42
2023-04-16T08:32:51.979Z,10.43
2023-04-16T08:35:20.521Z,10.43
2023-04-16T08:37:47.113Z,10.46
2023-04-16T08:40:13.725Z,10.44
2023-04-16T08:42:40.445Z,10.46
2023-04-16T08:45:07.891Z,10.38
2023-04-16T08:47:36.546Z,10.38
2023-04-16T08:50:04.075Z,10.43
2023-04-16T08:52:32.670Z,10.45
2023-04-16T08:55:00.256Z,10.46
2023-04-16T08:57:27.865Z,10.46
2023-04-16T08:59:55.460Z,10.41
2023-04-16T09:02:24.130Z,10.40
2023-04-16T09:04:51.673Z,10.39
2023-04-16T09:07:19.215Z,10.36
2023-04-16T09:09:47.834Z,10.35
2023-04-16T09:12:14.408Z,10.37
2023-04-16T09:14:42.089Z,10.37
2023-04-16T09:17:09.598Z,10.38
2023-04-16T09:19:36.490Z,10.42
2023-04-16T09:22:04.779Z,10.48
2023-04-16T09:24:32.382Z,10.49
2023-04-16T09:26:59.960Z,10.52
2023-04-16T09:29:29.128Z,10.55
2023-04-16T09:31:57.175Z,10.59
2023-04-16T09:34:24.748Z,10.63
2023-04-16T09:36:52.383Z,10.70
2023-04-16T09:39:19.992Z,10.71
2023-04-16T09:41:47.551Z,10.74
2023-04-16T09:44:16.134Z,10.82
2023-04-16T09:46:43.736Z,10.91
2023-04-16T09:49:12.605Z,10.98
2023-04-16T09:51:39.935Z,11.05
2023-04-16T09:54:08.530Z,11.12
2023-04-16T09:56:36.118Z,11.11
2023-04-16T09:59:03.704Z,11.13
2023-04-16T10:01:31.335Z,11.11
2023-04-16T10:04:00.043Z,11.13
2023-04-16T10:06:28.509Z,11.19
2023-04-16T10:08:57.308Z,11.27
2023-04-16T10:11:27.062Z,11.40
2023-04-16T10:14:28.281Z,11.48
2023-04-16T10:16:53.086Z,11.55
2023-04-16T10:19:20.646Z,11.59
2023-04-16T10:21:48.242Z,11.60
2023-04-16T10:24:15.816Z,11.66
2023-04-16T10:26:44.656Z,11.67
2023-04-16T10:29:12.236Z,11.69
2023-04-16T10:31:39.634Z,11.72
2023-04-16T10:34:07.199Z,11.76
2023-04-16T10:36:34.786Z,11.85
2023-04-16T10:39:02.444Z,11.89
2023-04-16T10:41:31.033Z,12.00
2023-04-16T10:43:58.644Z,12.15
2023-04-16T10:46:26.241Z,12.26
2023-04-16T10:48:53.813Z,12.38
2023-04-16T10:51:21.419Z,12.43
2023-04-16T10:53:49.010Z,12.48
2023-04-16T10:56:16.585Z,12.58
2023-04-16T10:58:45.462Z,12.69
2023-04-16T11:52:26.254Z,11.59
2023-04-16T12:11:40.906Z,12.64
2023-04-16T12:16:53.260Z,13.26
2023-04-16T12:19:43.660Z,13.32
2023-04-16T12:22:12.434Z,13.57
2023-04-16T12:24:41.371Z,13.71
2023-04-16T12:29:58.580Z,13.74
2023-04-16T12:32:28.680Z,13.53
2023-04-16T12:35:03.096Z,13.38
2023-04-16T12:37:36.289Z,13.25
2023-04-16T12:42:59.203Z,13.19
2023-04-16T12:48:10.986Z,13.20
2023-04-16T12:53:26.296Z,13.39
2023-04-16T13:12:23.500Z,13.44
2023-04-16T13:14:52.489Z,13.66
2023-04-16T13:17:33.158Z,13.83
2023-04-16T13:20:13.757Z,13.86
2023-04-16T13:25:31.788Z,13.92
2023-04-16T13:28:02.429Z,13.98
2023-04-16T13:30:40.023Z,14.12
2023-04-16T13:41:23.220Z,13.96
2023-04-16T14:19:36.182Z,12.94
2023-04-16T14:39:06.278Z,12.38
